sensor_id;sensor_type;location;lat;lon;timestamp;P1;durP1;ratioP1;P2;durP2;ratioP2
5923;SDS011;2987;50.884;14.818;2023-09-19T00:01:39;15.27;;;11.77;;
5923;SDS011;2987;50.884;14.818;2023-09-19T00:04:07;15.27;;;12.03;;
5923;SDS011;2987;50.884;14.818;2023-09-19T00:06:38;14.50;;;11.83;;
5923;SDS011;2987;50.884;14.818;2023-09-19T00:09:05;16.33;;;11.67;;
5923;SDS011;2987;50.884;14.818;2023-09-19T00:11:36;15.03;;;11.90;;
5923;SDS011;2987;50.884;14.818;2023-09-19T00:14:03;12.50;;;11.07;;
5923;SDS011;2987;50.884;14.818;2023-09-19T00:16:34;13.30;;;11.20;;
5923;SDS011;2987;50.884;14.818;2023-09-19T00:19:01;13.23;;;10.83;;
5923;SDS011;2987;50.884;14.818;2023-09-19T00:21:33;21.97;;;12.03;;
5923;SDS011;2987;50.884;14.818;2023-09-19T00:23:59;13.10;;;11.50;;
5923;SDS011;2987;50.884;14.818;2023-09-19T00:26:25;12.53;;;11.23;;
5923;SDS011;2987;50.884;14.818;2023-09-19T00:28:52;14.03;;;10.93;;
5923;SDS011;2987;50.884;14.818;2023-09-19T00:31:18;13.07;;;11.67;;
5923;SDS011;2987;50.884;14.818;2023-09-19T00:33:44;11.40;;;10.20;;
5923;SDS011;2987;50.884;14.818;2023-09-19T00:36:10;11.57;;;10.30;;
5923;SDS011;2987;50.884;14.818;2023-09-19T00:38:36;15.10;;;9.83;;
5923;SDS011;2987;50.884;14.818;2023-09-19T00:41:02;16.40;;;10.43;;
5923;SDS011;2987;50.884;14.818;2023-09-19T00:43:28;13.60;;;8.83;;
5923;SDS011;2987;50.884;14.818;2023-09-19T00:45:55;13.87;;;9.60;;
5923;SDS011;2987;50.884;14.818;2023-09-19T00:48:22;11.77;;;8.03;;
5923;SDS011;2987;50.884;14.818;2023-09-19T00:50:50;14.27;;;8.47;;
5923;SDS011;2987;50.884;14.818;2023-09-19T00:55:45;8.93;;;8.00;;
5923;SDS011;2987;50.884;14.818;2023-09-19T00:58:13;14.13;;;7.67;;
5923;SDS011;2987;50.884;14.818;2023-09-19T01:00:40;10.80;;;7.80;;
5923;SDS011;2987;50.884;14.818;2023-09-19T01:03:10;9.30;;;7.87;;
5923;SDS011;2987;50.884;14.818;2023-09-19T01:05:40;9.87;;;7.97;;
5923;SDS011;2987;50.884;14.818;2023-09-19T01:08:07;11.53;;;8.13;;
5923;SDS011;2987;50.884;14.818;2023-09-19T01:10:33;9.73;;;8.37;;
5923;SDS011;2987;50.884;14.818;2023-09-19T01:13:04;12.13;;;8.30;;
5923;SDS011;2987;50.884;14.818;2023-09-19T01:15:53;8.47;;;7.63;;
5923;SDS011;2987;50.884;14.818;2023-09-19T01:19:01;9.00;;;8.17;;
5923;SDS011;2987;50.884;14.818;2023-09-19T01:21:51;10.83;;;8.37;;
5923;SDS011;2987;50.884;14.818;2023-09-19T01:24:54;7.53;;;6.77;;
5923;SDS011;2987;50.884;14.818;2023-09-19T01:30:43;8.20;;;6.10;;
5923;SDS011;2987;50.884;14.818;2023-09-19T01:33:10;8.50;;;5.63;;
5923;SDS011;2987;50.884;14.818;2023-09-19T01:35:39;13.53;;;6.70;;
5923;SDS011;2987;50.884;14.818;2023-09-19T01:38:06;6.03;;;5.43;;
5923;SDS011;2987;50.884;14.818;2023-09-19T01:40:37;9.50;;;4.97;;
5923;SDS011;2987;50.884;14.818;2023-09-19T01:43:12;8.80;;;4.60;;
5923;SDS011;2987;50.884;14.818;2023-09-19T01:48:46;7.50;;;3.57;;
5923;SDS011;2987;50.884;14.818;2023-09-19T01:51:20;4.43;;;3.40;;
5923;SDS011;2987;50.884;14.818;2023-09-19T01:54:04;4.07;;;3.40;;
5923;SDS011;2987;50.884;14.818;2023-09-19T01:56:45;4.90;;;2.97;;
5923;SDS011;2987;50.884;14.818;2023-09-19T01:59:17;3.63;;;3.10;;
5923;SDS011;2987;50.884;14.818;2023-09-19T02:01:53;3.97;;;3.27;;
5923;SDS011;2987;50.884;14.818;2023-09-19T02:04:21;5.23;;;3.27;;
5923;SDS011;2987;50.884;14.818;2023-09-19T02:06:47;4.10;;;3.20;;
5923;SDS011;2987;50.884;14.818;2023-09-19T02:09:14;7.93;;;3.50;;
5923;SDS011;2987;50.884;14.818;2023-09-19T02:11:40;5.30;;;3.50;;
5923;SDS011;2987;50.884;14.818;2023-09-19T02:14:07;5.10;;;4.20;;
5923;SDS011;2987;50.884;14.818;2023-09-19T02:16:34;6.97;;;4.23;;
5923;SDS011;2987;50.884;14.818;2023-09-19T02:19:00;5.07;;;3.43;;
5923;SDS011;2987;50.884;14.818;2023-09-19T02:21:30;4.77;;;3.70;;
5923;SDS011;2987;50.884;14.818;2023-09-19T02:23:57;5.27;;;3.73;;
5923;SDS011;2987;50.884;14.818;2023-09-19T02:26:24;4.77;;;3.90;;
5923;SDS011;2987;50.884;14.818;2023-09-19T02:28:50;7.67;;;4.70;;
5923;SDS011;2987;50.884;14.818;2023-09-19T02:31:16;6.77;;;4.37;;
5923;SDS011;2987;50.884;14.818;2023-09-19T02:33:42;7.40;;;4.27;;
5923;SDS011;2987;50.884;14.818;2023-09-19T02:36:08;7.37;;;4.67;;
5923;SDS011;2987;50.884;14.818;2023-09-19T02:38:35;7.50;;;4.80;;
5923;SDS011;2987;50.884;14.818;2023-09-19T02:41:02;4.73;;;4.33;;
5923;SDS011;2987;50.884;14.818;2023-09-19T02:43:28;7.30;;;5.20;;
5923;SDS011;2987;50.884;14.818;2023-09-19T02:45:54;6.33;;;5.40;;
5923;SDS011;2987;50.884;14.818;2023-09-19T02:48:22;11.07;;;6.30;;
5923;SDS011;2987;50.884;14.818;2023-09-19T02:50:49;7.03;;;6.30;;
5923;SDS011;2987;50.884;14.818;2023-09-19T02:53:15;9.27;;;6.77;;
5923;SDS011;2987;50.884;14.818;2023-09-19T02:55:41;6.80;;;5.57;;
5923;SDS011;2987;50.884;14.818;2023-09-19T02:58:08;9.07;;;6.60;;
5923;SDS011;2987;50.884;14.818;2023-09-19T03:00:37;11.87;;;6.63;;
5923;SDS011;2987;50.884;14.818;2023-09-19T03:03:04;8.83;;;6.37;;
5923;SDS011;2987;50.884;14.818;2023-09-19T03:05:32;11.43;;;6.70;;
5923;SDS011;2987;50.884;14.818;2023-09-19T03:07:58;7.57;;;6.87;;
5923;SDS011;2987;50.884;14.818;2023-09-19T03:10:29;10.23;;;6.63;;
5923;SDS011;2987;50.884;14.818;2023-09-19T03:12:57;7.97;;;6.43;;
5923;SDS011;2987;50.884;14.818;2023-09-19T03:15:25;7.77;;;6.33;;
5923;SDS011;2987;50.884;14.818;2023-09-19T03:17:52;8.77;;;6.40;;
5923;SDS011;2987;50.884;14.818;2023-09-19T03:20:21;9.57;;;6.40;;
5923;SDS011;2987;50.884;14.818;2023-09-19T03:22:48;7.20;;;6.10;;
5923;SDS011;2987;50.884;14.818;2023-09-19T03:25:16;7.60;;;6.50;;
5923;SDS011;2987;50.884;14.818;2023-09-19T03:27:46;12.63;;;6.20;;
5923;SDS011;2987;50.884;14.818;2023-09-19T03:30:13;6.70;;;6.00;;
5923;SDS011;2987;50.884;14.818;2023-09-19T03:32:45;7.47;;;5.87;;
5923;SDS011;2987;50.884;14.818;2023-09-19T03:37:41;9.97;;;6.30;;
5923;SDS011;2987;50.884;14.818;2023-09-19T03:40:08;8.00;;;5.97;;
5923;SDS011;2987;50.884;14.818;2023-09-19T03:42:39;7.20;;;6.20;;
5923;SDS011;2987;50.884;14.818;2023-09-19T03:45:08;10.10;;;6.03;;
5923;SDS011;2987;50.884;14.818;2023-09-19T03:47:41;10.33;;;6.27;;
5923;SDS011;2987;50.884;14.818;2023-09-19T03:50:09;7.60;;;6.40;;
5923;SDS011;2987;50.884;14.818;2023-09-19T03:52:37;7.00;;;6.27;;
5923;SDS011;2987;50.884;14.818;2023-09-19T03:55:03;8.87;;;6.40;;
5923;SDS011;2987;50.884;14.818;2023-09-19T03:57:30;9.60;;;6.53;;
5923;SDS011;2987;50.884;14.818;2023-09-19T03:59:56;8.50;;;6.67;;
5923;SDS011;2987;50.884;14.818;2023-09-19T04:02:22;10.93;;;6.70;;
5923;SDS011;2987;50.884;14.818;2023-09-19T04:04:50;9.23;;;6.80;;
5923;SDS011;2987;50.884;14.818;2023-09-19T04:07:17;9.80;;;6.60;;
5923;SDS011;2987;50.884;14.818;2023-09-19T04:09:48;7.13;;;6.43;;
5923;SDS011;2987;50.884;14.818;2023-09-19T04:12:14;7.57;;;5.83;;
5923;SDS011;2987;50.884;14.818;2023-09-19T04:14:42;7.77;;;6.77;;
5923;SDS011;2987;50.884;14.818;2023-09-19T04:17:09;7.83;;;7.00;;
5923;SDS011;2987;50.884;14.818;2023-09-19T04:19:36;8.07;;;7.23;;
5923;SDS011;2987;50.884;14.818;2023-09-19T04:22:04;11.97;;;7.10;;
5923;SDS011;2987;50.884;14.818;2023-09-19T04:24:30;11.07;;;7.33;;
5923;SDS011;2987;50.884;14.818;2023-09-19T04:26:57;8.37;;;6.90;;
5923;SDS011;2987;50.884;14.818;2023-09-19T04:31:56;8.63;;;6.73;;
5923;SDS011;2987;50.884;14.818;2023-09-19T04:34:23;9.43;;;7.60;;
5923;SDS011;2987;50.884;14.818;2023-09-19T04:36:49;18.20;;;8.63;;
5923;SDS011;2987;50.884;14.818;2023-09-19T04:39:15;9.00;;;8.10;;
5923;SDS011;2987;50.884;14.818;2023-09-19T04:41:43;10.10;;;9.10;;
5923;SDS011;2987;50.884;14.818;2023-09-19T04:44:10;9.63;;;8.73;;
5923;SDS011;2987;50.884;14.818;2023-09-19T04:46:36;9.70;;;8.40;;
5923;SDS011;2987;50.884;14.818;2023-09-19T04:49:02;9.93;;;8.93;;
5923;SDS011;2987;50.884;14.818;2023-09-19T04:51:28;10.33;;;8.47;;
5923;SDS011;2987;50.884;14.818;2023-09-19T04:53:59;11.17;;;8.20;;
5923;SDS011;2987;50.884;14.818;2023-09-19T04:56:25;9.20;;;8.23;;
5923;SDS011;2987;50.884;14.818;2023-09-19T04:58:53;9.37;;;8.43;;
5923;SDS011;2987;50.884;14.818;2023-09-19T05:01:20;8.80;;;7.90;;
5923;SDS011;2987;50.884;14.818;2023-09-19T05:03:48;11.70;;;7.60;;
5923;SDS011;2987;50.884;14.818;2023-09-19T05:06:18;9.00;;;7.40;;
5923;SDS011;2987;50.884;14.818;2023-09-19T05:08:46;9.50;;;7.60;;
5923;SDS011;2987;50.884;14.818;2023-09-19T05:11:17;8.20;;;6.80;;
5923;SDS011;2987;50.884;14.818;2023-09-19T05:13:44;9.27;;;7.53;;
5923;SDS011;2987;50.884;14.818;2023-09-19T05:16:10;7.73;;;7.13;;
5923;SDS011;2987;50.884;14.818;2023-09-19T05:18:37;8.30;;;7.10;;
5923;SDS011;2987;50.884;14.818;2023-09-19T05:21:03;10.20;;;7.57;;
5923;SDS011;2987;50.884;14.818;2023-09-19T05:23:29;8.67;;;7.80;;
5923;SDS011;2987;50.884;14.818;2023-09-19T05:25:56;8.27;;;7.47;;
5923;SDS011;2987;50.884;14.818;2023-09-19T05:28:25;8.03;;;7.23;;
5923;SDS011;2987;50.884;14.818;2023-09-19T05:30:52;8.17;;;7.37;;
5923;SDS011;2987;50.884;14.818;2023-09-19T05:35:45;7.97;;;7.00;;
5923;SDS011;2987;50.884;14.818;2023-09-19T05:38:13;9.63;;;7.77;;
5923;SDS011;2987;50.884;14.818;2023-09-19T05:40:41;9.93;;;7.17;;
5923;SDS011;2987;50.884;14.818;2023-09-19T05:43:09;9.17;;;7.90;;
5923;SDS011;2987;50.884;14.818;2023-09-19T05:45:35;8.70;;;7.80;;
5923;SDS011;2987;50.884;14.818;2023-09-19T05:48:17;14.93;;;8.00;;
5923;SDS011;2987;50.884;14.818;2023-09-19T05:50:43;9.07;;;7.67;;
5923;SDS011;2987;50.884;14.818;2023-09-19T05:53:14;8.53;;;7.60;;
5923;SDS011;2987;50.884;14.818;2023-09-19T05:55:41;8.43;;;7.67;;
5923;SDS011;2987;50.884;14.818;2023-09-19T05:58:07;9.53;;;8.17;;
5923;SDS011;2987;50.884;14.818;2023-09-19T06:00:34;11.73;;;8.63;;
5923;SDS011;2987;50.884;14.818;2023-09-19T06:03:00;9.93;;;8.70;;
5923;SDS011;2987;50.884;14.818;2023-09-19T06:05:26;12.10;;;8.67;;
5923;SDS011;2987;50.884;14.818;2023-09-19T06:07:54;11.63;;;8.53;;
5923;SDS011;2987;50.884;14.818;2023-09-19T06:10:20;8.87;;;7.97;;
5923;SDS011;2987;50.884;14.818;2023-09-19T06:12:48;9.40;;;8.60;;
5923;SDS011;2987;50.884;14.818;2023-09-19T06:15:14;8.60;;;7.80;;
5923;SDS011;2987;50.884;14.818;2023-09-19T06:17:42;9.63;;;8.70;;
5923;SDS011;2987;50.884;14.818;2023-09-19T06:20:17;9.50;;;7.60;;
5923;SDS011;2987;50.884;14.818;2023-09-19T06:22:45;10.47;;;7.93;;
5923;SDS011;2987;50.884;14.818;2023-09-19T06:25:12;10.23;;;7.90;;
5923;SDS011;2987;50.884;14.818;2023-09-19T06:27:46;8.77;;;7.80;;
5923;SDS011;2987;50.884;14.818;2023-09-19T06:30:13;8.73;;;7.30;;
5923;SDS011;2987;50.884;14.818;2023-09-19T06:32:41;8.00;;;6.83;;
5923;SDS011;2987;50.884;14.818;2023-09-19T06:35:10;7.20;;;6.50;;
5923;SDS011;2987;50.884;14.818;2023-09-19T06:37:37;11.03;;;7.03;;
5923;SDS011;2987;50.884;14.818;2023-09-19T06:40:05;10.07;;;6.83;;
5923;SDS011;2987;50.884;14.818;2023-09-19T06:42:39;8.07;;;7.27;;
5923;SDS011;2987;50.884;14.818;2023-09-19T06:45:07;9.67;;;7.50;;
5923;SDS011;2987;50.884;14.818;2023-09-19T06:47:36;8.70;;;7.80;;
5923;SDS011;2987;50.884;14.818;2023-09-19T06:50:03;8.20;;;7.20;;
5923;SDS011;2987;50.884;14.818;2023-09-19T06:52:30;7.67;;;6.97;;
5923;SDS011;2987;50.884;14.818;2023-09-19T06:54:58;8.40;;;6.27;;
5923;SDS011;2987;50.884;14.818;2023-09-19T06:57:24;8.27;;;7.43;;
5923;SDS011;2987;50.884;14.818;2023-09-19T06:59:50;10.87;;;6.90;;
5923;SDS011;2987;50.884;14.818;2023-09-19T07:02:16;9.03;;;7.43;;
5923;SDS011;2987;50.884;14.818;2023-09-19T07:04:42;9.57;;;7.57;;
5923;SDS011;2987;50.884;14.818;2023-09-19T07:07:08;10.50;;;6.90;;
5923;SDS011;2987;50.884;14.818;2023-09-19T07:09:35;9.47;;;7.33;;
5923;SDS011;2987;50.884;14.818;2023-09-19T07:12:03;7.50;;;6.73;;
5923;SDS011;2987;50.884;14.818;2023-09-19T07:14:29;7.77;;;6.97;;
5923;SDS011;2987;50.884;14.818;2023-09-19T07:16:55;8.27;;;6.70;;
5923;SDS011;2987;50.884;14.818;2023-09-19T07:19:21;9.10;;;6.23;;
5923;SDS011;2987;50.884;14.818;2023-09-19T07:21:48;6.40;;;5.80;;
5923;SDS011;2987;50.884;14.818;2023-09-19T07:24:16;6.03;;;5.37;;
5923;SDS011;2987;50.884;14.818;2023-09-19T07:26:42;5.87;;;5.27;;
5923;SDS011;2987;50.884;14.818;2023-09-19T07:29:08;7.83;;;5.40;;
5923;SDS011;2987;50.884;14.818;2023-09-19T07:31:35;6.13;;;4.60;;
5923;SDS011;2987;50.884;14.818;2023-09-19T07:34:01;6.90;;;4.30;;
5923;SDS011;2987;50.884;14.818;2023-09-19T07:36:29;4.73;;;3.60;;
5923;SDS011;2987;50.884;14.818;2023-09-19T07:38:56;4.63;;;3.40;;
5923;SDS011;2987;50.884;14.818;2023-09-19T07:41:23;5.00;;;3.40;;
5923;SDS011;2987;50.884;14.818;2023-09-19T07:43:49;4.30;;;2.70;;
5923;SDS011;2987;50.884;14.818;2023-09-19T07:46:15;3.03;;;2.47;;
5923;SDS011;2987;50.884;14.818;2023-09-19T07:48:42;4.50;;;2.30;;
5923;SDS011;2987;50.884;14.818;2023-09-19T07:51:13;2.60;;;2.23;;
5923;SDS011;2987;50.884;14.818;2023-09-19T07:53:41;5.43;;;2.20;;
5923;SDS011;2987;50.884;14.818;2023-09-19T07:56:08;2.17;;;1.97;;
5923;SDS011;2987;50.884;14.818;2023-09-19T07:58:36;2.93;;;1.83;;
5923;SDS011;2987;50.884;14.818;2023-09-19T08:01:07;1.90;;;1.80;;
5923;SDS011;2987;50.884;14.818;2023-09-19T08:03:34;4.40;;;2.20;;
5923;SDS011;2987;50.884;14.818;2023-09-19T08:06:03;2.63;;;1.80;;
5923;SDS011;2987;50.884;14.818;2023-09-19T08:08:29;3.33;;;1.77;;
5923;SDS011;2987;50.884;14.818;2023-09-19T08:10:56;1.97;;;1.60;;
5923;SDS011;2987;50.884;14.818;2023-09-19T08:13:23;4.87;;;1.80;;
5923;SDS011;2987;50.884;14.818;2023-09-19T08:15:50;2.23;;;1.53;;
5923;SDS011;2987;50.884;14.818;2023-09-19T08:18:18;3.20;;;1.83;;
5923;SDS011;2987;50.884;14.818;2023-09-19T08:20:52;1.73;;;1.60;;
5923;SDS011;2987;50.884;14.818;2023-09-19T08:23:18;1.93;;;1.20;;
5923;SDS011;2987;50.884;14.818;2023-09-19T08:25:47;4.10;;;1.40;;
5923;SDS011;2987;50.884;14.818;2023-09-19T08:28:13;2.83;;;1.67;;
5923;SDS011;2987;50.884;14.818;2023-09-19T08:30:45;3.17;;;1.43;;
5923;SDS011;2987;50.884;14.818;2023-09-19T08:33:11;1.50;;;1.23;;
5923;SDS011;2987;50.884;14.818;2023-09-19T08:35:41;5.53;;;1.30;;
5923;SDS011;2987;50.884;14.818;2023-09-19T08:38:09;2.13;;;1.30;;
5923;SDS011;2987;50.884;14.818;2023-09-19T08:40:39;1.53;;;1.13;;
5923;SDS011;2987;50.884;14.818;2023-09-19T08:43:08;4.27;;;1.30;;
5923;SDS011;2987;50.884;14.818;2023-09-19T08:45:35;1.73;;;1.47;;
5923;SDS011;2987;50.884;14.818;2023-09-19T08:48:12;3.47;;;1.27;;
5923;SDS011;2987;50.884;14.818;2023-09-19T08:50:49;3.17;;;1.40;;
5923;SDS011;2987;50.884;14.818;2023-09-19T08:53:26;2.27;;;1.00;;
5923;SDS011;2987;50.884;14.818;2023-09-19T08:55:57;1.50;;;1.17;;
5923;SDS011;2987;50.884;14.818;2023-09-19T08:58:29;1.43;;;1.30;;
5923;SDS011;2987;50.884;14.818;2023-09-19T09:00:59;1.93;;;1.20;;
5923;SDS011;2987;50.884;14.818;2023-09-19T09:03:29;3.83;;;1.13;;
5923;SDS011;2987;50.884;14.818;2023-09-19T09:06:00;1.70;;;1.20;;
5923;SDS011;2987;50.884;14.818;2023-09-19T09:08:28;3.47;;;1.37;;
5923;SDS011;2987;50.884;14.818;2023-09-19T09:10:57;1.30;;;1.10;;
5923;SDS011;2987;50.884;14.818;2023-09-19T09:13:24;3.03;;;1.03;;
5923;SDS011;2987;50.884;14.818;2023-09-19T09:15:51;1.00;;;0.90;;
5923;SDS011;2987;50.884;14.818;2023-09-19T09:18:19;3.87;;;1.00;;
5923;SDS011;2987;50.884;14.818;2023-09-19T09:20:46;2.53;;;1.00;;
5923;SDS011;2987;50.884;14.818;2023-09-19T09:23:13;2.60;;;1.27;;
5923;SDS011;2987;50.884;14.818;2023-09-19T09:25:47;3.17;;;1.13;;
5923;SDS011;2987;50.884;14.818;2023-09-19T09:28:31;1.87;;;1.27;;
5923;SDS011;2987;50.884;14.818;2023-09-19T09:30:59;1.20;;;1.10;;
5923;SDS011;2987;50.884;14.818;2023-09-19T09:33:28;1.23;;;1.10;;
5923;SDS011;2987;50.884;14.818;2023-09-19T09:35:55;3.70;;;1.40;;
5923;SDS011;2987;50.884;14.818;2023-09-19T09:38:24;3.43;;;1.30;;
5923;SDS011;2987;50.884;14.818;2023-09-19T09:43:33;3.03;;;1.00;;
5923;SDS011;2987;50.884;14.818;2023-09-19T09:46:18;2.23;;;1.20;;
5923;SDS011;2987;50.884;14.818;2023-09-19T09:49:01;2.10;;;1.03;;
5923;SDS011;2987;50.884;14.818;2023-09-19T09:51:49;1.13;;;1.03;;
5923;SDS011;2987;50.884;14.818;2023-09-19T09:54:26;3.67;;;1.30;;
5923;SDS011;2987;50.884;14.818;2023-09-19T09:57:00;2.20;;;1.17;;
5923;SDS011;2987;50.884;14.818;2023-09-19T09:59:48;1.30;;;1.20;;
5923;SDS011;2987;50.884;14.818;2023-09-19T10:02:21;2.93;;;1.40;;
5923;SDS011;2987;50.884;14.818;2023-09-19T10:04:55;2.87;;;1.27;;
5923;SDS011;2987;50.884;14.818;2023-09-19T10:07:42;2.73;;;1.50;;
5923;SDS011;2987;50.884;14.818;2023-09-19T10:10:15;4.73;;;1.40;;
5923;SDS011;2987;50.884;14.818;2023-09-19T10:12:55;3.13;;;1.20;;
5923;SDS011;2987;50.884;14.818;2023-09-19T10:15:29;1.37;;;1.10;;
5923;SDS011;2987;50.884;14.818;2023-09-19T10:17:59;3.40;;;1.30;;
5923;SDS011;2987;50.884;14.818;2023-09-19T10:20:26;2.60;;;1.60;;
5923;SDS011;2987;50.884;14.818;2023-09-19T10:23:04;2.37;;;1.20;;
5923;SDS011;2987;50.884;14.818;2023-09-19T10:25:39;3.73;;;1.33;;
5923;SDS011;2987;50.884;14.818;2023-09-19T10:28:08;2.90;;;1.50;;
5923;SDS011;2987;50.884;14.818;2023-09-19T10:30:38;1.50;;;1.30;;
5923;SDS011;2987;50.884;14.818;2023-09-19T10:33:11;2.27;;;1.10;;
5923;SDS011;2987;50.884;14.818;2023-09-19T10:35:39;1.50;;;1.20;;
5923;SDS011;2987;50.884;14.818;2023-09-19T10:38:14;3.00;;;1.20;;
5923;SDS011;2987;50.884;14.818;2023-09-19T10:40:44;1.80;;;1.43;;
5923;SDS011;2987;50.884;14.818;2023-09-19T10:43:16;1.30;;;1.20;;
5923;SDS011;2987;50.884;14.818;2023-09-19T10:45:44;3.30;;;1.27;;
5923;SDS011;2987;50.884;14.818;2023-09-19T10:48:12;2.37;;;1.70;;
5923;SDS011;2987;50.884;14.818;2023-09-19T10:50:43;1.93;;;1.30;;
5923;SDS011;2987;50.884;14.818;2023-09-19T10:53:15;2.70;;;1.60;;
5923;SDS011;2987;50.884;14.818;2023-09-19T10:55:58;1.47;;;1.23;;
5923;SDS011;2987;50.884;14.818;2023-09-19T10:58:29;1.50;;;1.40;;
5923;SDS011;2987;50.884;14.818;2023-09-19T11:01:00;2.00;;;1.30;;
5923;SDS011;2987;50.884;14.818;2023-09-19T11:03:38;2.57;;;1.70;;
5923;SDS011;2987;50.884;14.818;2023-09-19T11:06:09;3.10;;;1.50;;
5923;SDS011;2987;50.884;14.818;2023-09-19T11:08:57;2.20;;;1.40;;
5923;SDS011;2987;50.884;14.818;2023-09-19T11:11:43;3.13;;;1.50;;
5923;SDS011;2987;50.884;14.818;2023-09-19T11:14:28;1.70;;;1.57;;
5923;SDS011;2987;50.884;14.818;2023-09-19T11:23:17;2.33;;;1.40;;
5923;SDS011;2987;50.884;14.818;2023-09-19T11:25:43;2.77;;;1.40;;
5923;SDS011;2987;50.884;14.818;2023-09-19T11:28:27;6.07;;;1.43;;
5923;SDS011;2987;50.884;14.818;2023-09-19T11:30:56;3.80;;;1.50;;
5923;SDS011;2987;50.884;14.818;2023-09-19T11:33:27;1.97;;;1.10;;
5923;SDS011;2987;50.884;14.818;2023-09-19T11:36:14;1.53;;;1.20;;
5923;SDS011;2987;50.884;14.818;2023-09-19T11:38:57;1.60;;;1.40;;
5923;SDS011;2987;50.884;14.818;2023-09-19T11:41:42;2.00;;;1.30;;
5923;SDS011;2987;50.884;14.818;2023-09-19T11:44:31;1.37;;;1.20;;
5923;SDS011;2987;50.884;14.818;2023-09-19T11:46:59;1.10;;;1.00;;
5923;SDS011;2987;50.884;14.818;2023-09-19T11:49:29;1.40;;;1.30;;
5923;SDS011;2987;50.884;14.818;2023-09-19T11:51:57;2.10;;;1.17;;
5923;SDS011;2987;50.884;14.818;2023-09-19T11:54:26;3.10;;;1.10;;
5923;SDS011;2987;50.884;14.818;2023-09-19T11:56:58;1.93;;;1.27;;
5923;SDS011;2987;50.884;14.818;2023-09-19T11:59:27;2.87;;;1.13;;
5923;SDS011;2987;50.884;14.818;2023-09-19T12:01:55;1.20;;;1.07;;
5923;SDS011;2987;50.884;14.818;2023-09-19T12:04:39;2.20;;;1.03;;
5923;SDS011;2987;50.884;14.818;2023-09-19T12:07:09;2.33;;;1.10;;
5923;SDS011;2987;50.884;14.818;2023-09-19T12:09:43;2.97;;;1.13;;
5923;SDS011;2987;50.884;14.818;2023-09-19T12:12:20;2.20;;;1.17;;
5923;SDS011;2987;50.884;14.818;2023-09-19T12:14:50;1.23;;;1.13;;
5923;SDS011;2987;50.884;14.818;2023-09-19T12:17:17;2.60;;;1.07;;
5923;SDS011;2987;50.884;14.818;2023-09-19T12:19:50;2.17;;;1.10;;
5923;SDS011;2987;50.884;14.818;2023-09-19T12:22:18;1.50;;;1.40;;
5923;SDS011;2987;50.884;14.818;2023-09-19T12:24:46;3.10;;;1.13;;
5923;SDS011;2987;50.884;14.818;2023-09-19T12:27:12;1.50;;;1.07;;
5923;SDS011;2987;50.884;14.818;2023-09-19T12:29:47;2.40;;;1.30;;
5923;SDS011;2987;50.884;14.818;2023-09-19T12:32:15;3.07;;;1.30;;
5923;SDS011;2987;50.884;14.818;2023-09-19T12:34:52;1.70;;;1.20;;
5923;SDS011;2987;50.884;14.818;2023-09-19T12:37:20;1.83;;;0.97;;
5923;SDS011;2987;50.884;14.818;2023-09-19T12:39:48;1.73;;;1.40;;
5923;SDS011;2987;50.884;14.818;2023-09-19T12:42:17;2.53;;;1.10;;
5923;SDS011;2987;50.884;14.818;2023-09-19T12:44:46;4.40;;;1.57;;
5923;SDS011;2987;50.884;14.818;2023-09-19T12:47:15;1.73;;;1.20;;
5923;SDS011;2987;50.884;14.818;2023-09-19T12:52:47;1.23;;;1.10;;
5923;SDS011;2987;50.884;14.818;2023-09-19T12:55:29;3.40;;;1.20;;
5923;SDS011;2987;50.884;14.818;2023-09-19T12:58:07;1.20;;;1.10;;
5923;SDS011;2987;50.884;14.818;2023-09-19T13:00:38;1.80;;;1.07;;
5923;SDS011;2987;50.884;14.818;2023-09-19T13:05:58;1.37;;;1.03;;
5923;SDS011;2987;50.884;14.818;2023-09-19T13:08:27;1.73;;;1.00;;
5923;SDS011;2987;50.884;14.818;2023-09-19T13:11:06;1.27;;;1.10;;
5923;SDS011;2987;50.884;14.818;2023-09-19T13:13:36;1.40;;;1.20;;
5923;SDS011;2987;50.884;14.818;2023-09-19T13:16:04;2.10;;;1.20;;
5923;SDS011;2987;50.884;14.818;2023-09-19T13:18:41;4.93;;;1.40;;
5923;SDS011;2987;50.884;14.818;2023-09-19T13:21:13;1.07;;;0.90;;
5923;SDS011;2987;50.884;14.818;2023-09-19T13:23:51;1.73;;;1.10;;
5923;SDS011;2987;50.884;14.818;2023-09-19T13:26:22;2.10;;;1.13;;
5923;SDS011;2987;50.884;14.818;2023-09-19T13:28:48;2.53;;;1.00;;
5923;SDS011;2987;50.884;14.818;2023-09-19T13:31:15;1.40;;;0.90;;
5923;SDS011;2987;50.884;14.818;2023-09-19T13:33:45;3.03;;;1.30;;
5923;SDS011;2987;50.884;14.818;2023-09-19T13:36:12;2.47;;;1.17;;
5923;SDS011;2987;50.884;14.818;2023-09-19T13:38:42;1.47;;;1.20;;
5923;SDS011;2987;50.884;14.818;2023-09-19T13:41:09;1.50;;;1.00;;
5923;SDS011;2987;50.884;14.818;2023-09-19T13:43:37;1.93;;;1.17;;
5923;SDS011;2987;50.884;14.818;2023-09-19T13:46:04;0.90;;;0.90;;
5923;SDS011;2987;50.884;14.818;2023-09-19T13:48:33;1.10;;;1.00;;
5923;SDS011;2987;50.884;14.818;2023-09-19T13:51:02;2.07;;;1.20;;
5923;SDS011;2987;50.884;14.818;2023-09-19T13:55:55;1.00;;;1.00;;
5923;SDS011;2987;50.884;14.818;2023-09-19T13:58:21;1.70;;;1.10;;
5923;SDS011;2987;50.884;14.818;2023-09-19T14:03:16;1.67;;;1.20;;
5923;SDS011;2987;50.884;14.818;2023-09-19T14:05:42;1.00;;;0.90;;
5923;SDS011;2987;50.884;14.818;2023-09-19T14:08:08;0.97;;;0.97;;
5923;SDS011;2987;50.884;14.818;2023-09-19T14:10:34;1.40;;;1.20;;
5923;SDS011;2987;50.884;14.818;2023-09-19T14:13:00;1.93;;;1.27;;
5923;SDS011;2987;50.884;14.818;2023-09-19T14:15:27;2.50;;;1.20;;
5923;SDS011;2987;50.884;14.818;2023-09-19T14:17:56;1.23;;;1.00;;
5923;SDS011;2987;50.884;14.818;2023-09-19T14:20:22;3.27;;;1.00;;
5923;SDS011;2987;50.884;14.818;2023-09-19T14:22:48;1.97;;;1.30;;
5923;SDS011;2987;50.884;14.818;2023-09-19T14:25:15;1.20;;;1.10;;
5923;SDS011;2987;50.884;14.818;2023-09-19T14:27:41;3.23;;;1.30;;
5923;SDS011;2987;50.884;14.818;2023-09-19T14:30:07;3.70;;;1.27;;
5923;SDS011;2987;50.884;14.818;2023-09-19T14:32:34;2.87;;;1.20;;
5923;SDS011;2987;50.884;14.818;2023-09-19T14:35:02;2.13;;;1.30;;
5923;SDS011;2987;50.884;14.818;2023-09-19T14:37:28;2.80;;;1.20;;
5923;SDS011;2987;50.884;14.818;2023-09-19T14:39:54;1.33;;;1.23;;
5923;SDS011;2987;50.884;14.818;2023-09-19T14:42:20;1.10;;;1.00;;
5923;SDS011;2987;50.884;14.818;2023-09-19T14:44:46;1.73;;;1.20;;
5923;SDS011;2987;50.884;14.818;2023-09-19T14:47:14;1.20;;;1.10;;
5923;SDS011;2987;50.884;14.818;2023-09-19T14:49:41;2.27;;;1.30;;
5923;SDS011;2987;50.884;14.818;2023-09-19T14:52:07;2.30;;;1.30;;
5923;SDS011;2987;50.884;14.818;2023-09-19T14:54:35;2.70;;;1.20;;
5923;SDS011;2987;50.884;14.818;2023-09-19T14:57:03;4.60;;;1.13;;
5923;SDS011;2987;50.884;14.818;2023-09-19T14:59:30;1.53;;;1.30;;
5923;SDS011;2987;50.884;14.818;2023-09-19T15:01:57;1.60;;;1.13;;
5923;SDS011;2987;50.884;14.818;2023-09-19T15:04:24;3.10;;;1.30;;
5923;SDS011;2987;50.884;14.818;2023-09-19T15:06:50;3.07;;;1.30;;
5923;SDS011;2987;50.884;14.818;2023-09-19T15:09:21;1.67;;;1.20;;
5923;SDS011;2987;50.884;14.818;2023-09-19T15:11:52;2.30;;;1.07;;
5923;SDS011;2987;50.884;14.818;2023-09-19T15:14:19;3.33;;;1.50;;
5923;SDS011;2987;50.884;14.818;2023-09-19T15:16:45;1.30;;;1.20;;
5923;SDS011;2987;50.884;14.818;2023-09-19T15:19:12;3.00;;;1.37;;
5923;SDS011;2987;50.884;14.818;2023-09-19T15:21:38;2.43;;;1.30;;
5923;SDS011;2987;50.884;14.818;2023-09-19T15:24:05;1.90;;;1.20;;
5923;SDS011;2987;50.884;14.818;2023-09-19T15:26:35;2.50;;;1.43;;
5923;SDS011;2987;50.884;14.818;2023-09-19T15:29:05;2.13;;;1.40;;
5923;SDS011;2987;50.884;14.818;2023-09-19T15:31:32;1.53;;;1.20;;
5923;SDS011;2987;50.884;14.818;2023-09-19T15:33:59;2.03;;;1.60;;
5923;SDS011;2987;50.884;14.818;2023-09-19T15:36:26;1.77;;;1.50;;
5923;SDS011;2987;50.884;14.818;2023-09-19T15:39:00;1.57;;;1.23;;
5923;SDS011;2987;50.884;14.818;2023-09-19T15:41:30;1.20;;;1.10;;
5923;SDS011;2987;50.884;14.818;2023-09-19T15:43:59;2.30;;;1.30;;
5923;SDS011;2987;50.884;14.818;2023-09-19T15:46:27;2.87;;;1.80;;
5923;SDS011;2987;50.884;14.818;2023-09-19T15:48:55;1.97;;;1.40;;